Time;durP1;ratioP1;P1;durP2;ratioP2;P2;SDS_P1;SDS_P2;PMS_P1;PMS_P2;Temp;Humidity;BMP_temperature;BMP_pressure;BME280_temperature;BME280_humidity;BME280_pressure;Samples;Min_cycle;Max_cycle;Signal;HPM_P1;HPM_P2
2023/01/15 00:00:38;;;;;;;4.93;1.52;;;;;;;6.75;100.00;99069.72;5126504;27;20019;-78
2023/01/15 00:03:04;;;;;;;8.45;1.83;;;;;;;6.70;100.00;99055.97;5129714;27;20050;-78
2023/01/15 00:05:29;;;;;;;9.45;1.60;;;;;;;6.87;100.00;99055.88;5118579;27;20027;-75
2023/01/15 00:07:56;;;;;;;12.10;2.15;;;;;;;6.78;100.00;99057.78;5131073;27;20023;-78
2023/01/15 00:10:24;;;;;;;6.70;1.58;;;;;;;6.69;100.00;99065.06;5121636;27;20025;-77
2023/01/15 00:12:50;;;;;;;6.55;1.88;;;;;;;6.80;100.00;99061.97;5147398;27;20023;-77
2023/01/15 00:15:16;;;;;;;7.15;1.10;;;;;;;6.79;100.00;99063.00;5113324;27;20038;-77
2023/01/15 00:17:44;;;;;;;6.53;1.77;;;;;;;6.77;100.00;99054.25;5117308;27;20046;-78
2023/01/15 00:20:10;;;;;;;7.97;1.55;;;;;;;6.62;100.00;99058.72;5126520;27;20022;-78
2023/01/15 00:22:36;;;;;;;10.55;1.98;;;;;;;6.51;100.00;99059.13;5114772;27;20023;-77
2023/01/15 00:27:46;;;;;;;4.90;1.40;;;;;;;6.63;100.00;99038.88;5127466;27;20018;-76
2023/01/15 00:30:14;;;;;;;9.85;1.33;;;;;;;6.64;100.00;99056.69;5126563;27;20506;-76
2023/01/15 00:32:41;;;;;;;8.10;1.58;;;;;;;6.64;100.00;99059.38;5115983;27;20027;-76
2023/01/15 00:35:11;;;;;;;9.93;1.58;;;;;;;6.61;100.00;99062.44;5111894;27;20019;-76
2023/01/15 00:37:36;;;;;;;9.20;1.40;;;;;;;6.69;100.00;99078.50;5114836;27;20213;-76
2023/01/15 00:40:02;;;;;;;8.88;2.35;;;;;;;6.50;100.00;99077.09;5106494;28;20073;-77
2023/01/15 00:42:28;;;;;;;8.70;2.10;;;;;;;6.56;100.00;99075.56;5126535;27;20011;-77
2023/01/15 00:44:53;;;;;;;12.43;2.03;;;;;;;6.56;100.00;99080.94;5105764;28;20034;-76
2023/01/15 00:47:20;;;;;;;13.85;1.85;;;;;;;6.56;100.00;99080.94;5114963;27;20079;-76
2023/01/15 00:49:46;;;;;;;8.70;2.35;;;;;;;6.62;100.00;99090.16;5110801;28;20034;-76
2023/01/15 00:52:12;;;;;;;8.43;1.73;;;;;;;6.51;100.00;99088.69;5091729;28;20028;-73
2023/01/15 00:54:37;;;;;;;9.13;1.77;;;;;;;6.61;100.00;99089.31;5117896;27;20034;-73
2023/01/15 00:57:02;;;;;;;10.32;2.05;;;;;;;6.66;100.00;99111.16;5111350;28;20051;-73
2023/01/15 00:59:28;;;;;;;10.07;1.33;;;;;;;6.60;100.00;99093.03;5120011;27;20119;-73
2023/01/15 01:01:53;;;;;;;6.53;1.65;;;;;;;6.60;100.00;99093.03;5112294;27;20459;-75
2023/01/15 01:04:19;;;;;;;8.50;1.90;;;;;;;6.62;100.00;99103.59;5113499;27;20050;-73
2023/01/15 01:06:44;;;;;;;7.70;1.38;;;;;;;6.55;100.00;99111.53;5110674;27;20051;-73
2023/01/15 01:09:13;;;;;;;10.25;1.80;;;;;;;6.53;100.00;99102.81;5123941;27;20023;-73
2023/01/15 01:11:39;;;;;;;10.65;1.83;;;;;;;6.55;100.00;99100.78;5114957;27;20022;-74
2023/01/15 01:14:04;;;;;;;7.38;1.50;;;;;;;6.58;100.00;99103.09;5117445;27;20022;-73
2023/01/15 01:16:34;;;;;;;10.02;1.95;;;;;;;6.48;100.00;99111.41;5121137;28;20027;-73
2023/01/15 01:19:03;;;;;;;8.30;1.50;;;;;;;6.61;100.00;99126.13;5116426;27;20035;-73
2023/01/15 01:21:29;;;;;;;6.03;1.70;;;;;;;6.61;100.00;99126.97;5103490;28;20034;-74
2023/01/15 01:23:59;;;;;;;7.32;1.08;;;;;;;6.53;100.00;99129.69;5110818;27;20026;-74
2023/01/15 01:26:25;;;;;;;5.70;1.02;;;;;;;6.59;100.00;99139.75;5136862;27;20095;-74
2023/01/15 01:28:52;;;;;;;4.45;1.75;;;;;;;6.54;100.00;99128.69;5112010;27;20054;-74
2023/01/15 01:31:19;;;;;;;12.18;1.85;;;;;;;6.50;100.00;99124.66;5107739;27;20028;-74
2023/01/15 01:33:48;;;;;;;14.10;1.60;;;;;;;6.67;100.00;99131.63;5112094;28;20483;-74
2023/01/15 01:36:14;;;;;;;5.97;1.35;;;;;;;6.41;100.00;99123.03;5125310;27;20034;-73
2023/01/15 01:38:39;;;;;;;8.00;1.30;;;;;;;6.43;100.00;99123.69;5146131;27;20109;-73
2023/01/15 01:41:04;;;;;;;7.75;1.70;;;;;;;6.47;100.00;99130.41;5120411;27;20115;-74
2023/01/15 01:43:31;;;;;;;8.75;1.92;;;;;;;6.42;100.00;99127.38;5125463;27;20172;-74
2023/01/15 01:45:56;;;;;;;11.65;1.90;;;;;;;6.49;100.00;99122.97;5123221;27;20235;-74
2023/01/15 01:48:33;;;;;;;6.93;2.25;;;;;;;6.33;100.00;99118.53;5110203;27;20027;-74
2023/01/15 01:51:00;;;;;;;9.75;1.80;;;;;;;6.43;100.00;99118.31;5112910;27;20027;-74
2023/01/15 01:53:29;;;;;;;14.20;1.98;;;;;;;6.60;100.00;99136.06;5117773;27;20030;-74
2023/01/15 01:55:56;;;;;;;12.70;2.15;;;;;;;6.41;100.00;99120.34;5108149;27;20031;-74
2023/01/15 01:58:26;;;;;;;8.43;2.22;;;;;;;6.46;100.00;99117.97;5117885;27;20510;-73
2023/01/15 02:00:52;;;;;;;11.95;2.10;;;;;;;6.51;100.00;99120.94;5130711;27;20019;-75
2023/01/15 02:03:20;;;;;;;8.18;1.58;;;;;;;6.65;100.00;99139.06;5136130;27;20075;-75
2023/01/15 02:05:53;;;;;;;12.00;2.40;;;;;;;6.61;100.00;99124.28;5122763;27;20109;-74
2023/01/15 02:08:20;;;;;;;9.40;1.77;;;;;;;6.60;100.00;99125.28;5126824;27;20031;-74
2023/01/15 02:10:55;;;;;;;10.27;1.90;;;;;;;6.55;100.00;99111.53;5119291;27;20134;-74
2023/01/15 02:13:38;;;;;;;19.95;2.45;;;;;;;6.51;100.00;99110.19;5113731;27;20549;-74
2023/01/15 02:16:20;;;;;;;8.75;2.00;;;;;;;6.51;100.00;99115.56;5120447;27;20038;-74
2023/01/15 02:18:58;;;;;;;18.83;3.15;;;;;;;6.64;100.00;99097.03;5108519;27;20027;-74
2023/01/15 02:21:41;;;;;;;9.95;2.35;;;;;;;6.54;100.00;99107.16;5119103;27;20121;-74
2023/01/15 02:24:25;;;;;;;5.72;1.58;;;;;;;6.63;100.00;99110.66;5107513;27;20100;-74
2023/01/15 02:27:02;;;;;;;10.10;1.73;;;;;;;6.70;100.00;99115.13;5143089;27;20031;-75
2023/01/15 02:29:52;;;;;;;8.45;2.08;;;;;;;6.69;100.00;99129.59;5120384;27;20046;-74
2023/01/15 02:33:02;;;;;;;16.10;2.55;;;;;;;6.66;100.00;99124.59;5128100;27;20145;-74
2023/01/15 02:35:33;;;;;;;13.30;2.67;;;;;;;6.65;100.00;99090.66;5016723;28;20029;-74
2023/01/15 02:38:03;;;;;;;14.77;1.75;;;;;;;6.61;100.00;99094.69;5135300;27;20091;-74
2023/01/15 02:40:30;;;;;;;14.60;3.35;;;;;;;6.62;100.00;99085.63;5111994;27;20072;-75
2023/01/15 02:42:57;;;;;;;11.10;2.33;;;;;;;6.67;100.00;99094.00;5113878;27;20114;-74
2023/01/15 02:45:28;;;;;;;16.40;2.55;;;;;;;6.67;100.00;99082.41;5117519;27;20027;-74
2023/01/15 02:47:57;;;;;;;16.65;2.50;;;;;;;6.70;100.00;99061.34;5123990;27;20110;-75
2023/01/15 02:50:41;;;;;;;9.68;1.52;;;;;;;6.66;100.00;99076.19;5110623;27;20035;-74
2023/01/15 02:53:11;;;;;;;19.42;3.15;;;;;;;6.77;100.00;99078.44;5107878;27;20524;-74
2023/01/15 02:55:42;;;;;;;14.45;2.20;;;;;;;6.69;100.00;99086.56;5119011;27;20011;-74
2023/01/15 02:58:13;;;;;;;32.70;3.08;;;;;;;6.72;100.00;99097.00;5105742;27;20027;-74
2023/01/15 03:00:42;;;;;;;10.48;2.20;;;;;;;6.70;100.00;99077.50;5141514;27;20027;-74
2023/01/15 03:03:32;;;;;;;12.63;2.08;;;;;;;6.62;100.00;99091.00;5119924;27;20019;-74
2023/01/15 03:06:09;;;;;;;12.05;1.80;;;;;;;6.71;100.00;99106.06;5113734;27;20070;-75
2023/01/15 03:08:35;;;;;;;19.42;2.25;;;;;;;6.78;100.00;99096.28;5118869;27;20030;-75
2023/01/15 03:11:07;;;;;;;13.13;2.17;;;;;;;6.70;100.00;99088.25;5115194;27;20023;-75
2023/01/15 03:13:42;;;;;;;16.92;2.85;;;;;;;6.61;100.00;99081.25;5106217;27;20164;-75
2023/01/15 03:16:34;;;;;;;14.85;2.67;;;;;;;6.65;100.00;99103.22;5110579;27;20035;-74
2023/01/15 03:19:17;;;;;;;;;;;;;;;6.68;100.00;99090.28;5104891;27;20101;-74
2023/01/15 03:22:08;;;;;;;19.17;2.80;;;;;;;6.62;100.00;99117.88;5116278;27;19914;-74
2023/01/15 03:24:51;;;;;;;18.02;2.42;;;;;;;6.60;100.00;99113.69;5089763;27;20070;-75
2023/01/15 03:27:18;;;;;;;23.13;2.85;;;;;;;6.67;100.00;99088.63;5107795;27;20164;-75
2023/01/15 03:29:48;;;;;;;17.35;2.97;;;;;;;6.64;100.00;99110.47;5115423;27;20023;-75
2023/01/15 03:32:15;;;;;;;17.20;2.33;;;;;;;6.64;100.00;99105.09;5115606;27;20092;-75
2023/01/15 03:34:48;;;;;;;25.90;2.60;;;;;;;6.62;100.00;99099.06;5122720;27;20025;-74
2023/01/15 03:37:15;;;;;;;20.25;3.55;;;;;;;6.63;100.00;99091.81;5110473;27;20463;-74
2023/01/15 03:39:41;;;;;;;16.17;2.80;;;;;;;6.60;100.00;99081.44;5101067;27;20024;-74
2023/01/15 03:42:44;;;;;;;21.45;2.83;;;;;;;6.65;100.00;99074.53;5122882;27;20092;-74
2023/01/15 03:45:34;;;;;;;16.70;2.70;;;;;;;6.65;100.00;99079.03;5101199;27;20027;-74
2023/01/15 03:48:31;;;;;;;22.02;3.25;;;;;;;6.64;100.00;99086.25;5105097;27;20015;-74
2023/01/15 03:51:10;;;;;;;14.68;2.53;;;;;;;6.64;100.00;99078.19;5103306;27;20027;-74
2023/01/15 03:53:43;;;;;;;22.23;2.72;;;;;;;6.63;100.00;99081.06;5107721;27;20022;-74
2023/01/15 03:56:18;;;;;;;15.10;2.50;;;;;;;6.66;100.00;99076.19;5108664;27;20038;-74
2023/01/15 03:58:49;;;;;;;17.23;2.85;;;;;;;6.71;100.00;99063.03;5102787;27;20069;-74
2023/01/15 04:01:22;;;;;;;18.77;2.60;;;;;;;6.64;100.00;99066.59;5116629;27;20019;-74
2023/01/15 04:03:49;;;;;;;9.95;2.42;;;;;;;6.68;100.00;99068.78;5136450;27;20467;-74
2023/01/15 04:06:16;;;;;;;17.27;3.30;;;;;;;6.55;100.00;99063.13;5087762;27;20031;-74
2023/01/15 04:08:44;;;;;;;19.67;3.50;;;;;;;6.60;100.00;99055.38;5116569;27;20022;-74
2023/01/15 04:11:10;;;;;;;14.88;2.05;;;;;;;6.69;100.00;99065.06;5138686;27;20381;-74
2023/01/15 04:13:36;;;;;;;25.45;3.13;;;;;;;6.62;100.00;99058.72;5108705;27;20025;-74
2023/01/15 04:16:01;;;;;;;21.10;2.67;;;;;;;6.58;100.00;99046.63;5118186;27;20027;-74
2023/01/15 04:18:27;;;;;;;23.48;3.08;;;;;;;6.65;100.00;99063.75;5130954;27;20107;-75
2023/01/15 04:20:54;;;;;;;23.50;2.47;;;;;;;6.59;100.00;99069.84;5114577;27;20015;-74
2023/01/15 04:23:22;;;;;;;26.33;3.40;;;;;;;6.59;100.00;99052.88;5113689;27;20031;-74
2023/01/15 04:25:48;;;;;;;18.92;3.78;;;;;;;6.53;100.00;99057.13;5111274;27;20054;-74
2023/01/15 04:28:13;;;;;;;18.42;3.10;;;;;;;6.53;100.00;99070.56;5105204;27;20019;-74
2023/01/15 04:30:41;;;;;;;18.75;2.85;;;;;;;6.43;100.00;99056.47;5114796;27;20019;-74
2023/01/15 04:33:06;;;;;;;18.83;2.90;;;;;;;6.41;100.00;99066.59;5110997;27;20211;-74
2023/01/15 04:35:31;;;;;;;19.02;2.88;;;;;;;6.53;100.00;99049.03;5106265;27;20038;-74
2023/01/15 04:37:58;;;;;;;25.52;3.13;;;;;;;6.55;100.00;99036.25;5110445;27;20030;-74
2023/01/15 04:45:57;;;;;;;14.75;2.70;;;;;;;6.49;100.00;99047.72;5127178;27;20113;-74
2023/01/15 04:48:23;;;;;;;22.67;2.70;;;;;;;6.43;100.00;99056.47;5117195;28;20319;-74
2023/01/15 04:50:48;;;;;;;33.10;3.03;;;;;;;6.45;100.00;99046.38;5107642;27;20061;-74
2023/01/15 04:53:14;;;;;;;20.50;2.75;;;;;;;6.48;100.00;99037.97;5119630;27;20093;-74
2023/01/15 04:55:39;;;;;;;20.95;4.47;;;;;;;6.52;100.00;99047.38;5113165;28;20023;-74
2023/01/15 04:58:04;;;;;;;23.98;3.00;;;;;;;6.35;100.00;99062.75;5111060;28;20031;-74
2023/01/15 05:00:30;;;;;;;29.40;2.65;;;;;;;6.39;100.00;99047.09;5123530;27;20015;-74
2023/01/15 05:02:55;;;;;;;26.10;3.15;;;;;;;6.48;100.00;99056.81;5122858;28;20027;-74
2023/01/15 05:05:21;;;;;;;21.77;3.22;;;;;;;6.47;100.00;99055.13;5122639;28;20027;-74
2023/01/15 05:07:46;;;;;;;17.95;3.13;;;;;;;6.38;100.00;99027.44;5127040;27;20479;-74
2023/01/15 05:10:11;;;;;;;20.90;3.33;;;;;;;6.33;100.00;99026.31;5124109;27;20023;-74
2023/01/15 05:12:36;;;;;;;21.80;3.13;;;;;;;6.33;100.00;99037.06;5109658;27;20113;-76
2023/01/15 05:15:02;;;;;;;25.77;3.10;;;;;;;6.33;100.00;99031.69;5133496;27;20044;-74
2023/01/15 05:17:27;;;;;;;19.42;3.75;;;;;;;6.24;100.00;99029.03;5122385;27;20050;-74
2023/01/15 05:19:53;;;;;;;21.23;2.42;;;;;;;6.30;100.00;99032.03;5114281;27;20106;-74
2023/01/15 05:22:18;;;;;;;16.00;2.42;;;;;;;6.28;100.00;99052.88;5136433;27;20041;-74
2023/01/15 05:24:44;;;;;;;17.17;3.20;;;;;;;6.25;100.00;99036.06;5102053;27;20096;-74
2023/01/15 05:27:09;;;;;;;20.30;2.80;;;;;;;6.29;100.00;99041.09;5116581;27;20505;-74
2023/01/15 05:29:35;;;;;;;18.05;2.60;;;;;;;6.32;100.00;99035.38;5118890;27;20026;-74
2023/01/15 05:32:00;;;;;;;20.98;3.38;;;;;;;6.30;100.00;99032.03;5121716;27;20113;-74
2023/01/15 05:34:26;;;;;;;18.55;3.55;;;;;;;6.27;100.00;99032.41;5115672;27;20081;-74
2023/01/15 05:36:51;;;;;;;20.10;3.40;;;;;;;6.30;100.00;99038.25;5121959;27;20027;-74
2023/01/15 05:39:16;;;;;;;17.75;2.80;;;;;;;6.40;100.00;99038.03;5124724;27;20031;-74
2023/01/15 05:41:48;;;;;;;24.70;3.05;;;;;;;6.38;100.00;99054.31;5106723;28;20047;-74
2023/01/15 05:44:19;;;;;;;29.67;3.47;;;;;;;6.31;100.00;99028.31;5111166;27;20029;-74
2023/01/15 05:46:46;;;;;;;15.60;2.60;;;;;;;6.30;100.00;99042.78;5125715;27;20030;-74
2023/01/15 05:49:14;;;;;;;28.52;5.10;;;;;;;6.31;100.00;99039.06;5129317;27;20018;-74
2023/01/15 05:51:40;;;;;;;21.80;3.55;;;;;;;6.29;100.00;99036.56;5117135;27;20023;-74
2023/01/15 05:54:09;;;;;;;14.35;2.88;;;;;;;6.29;100.00;99041.09;5124652;27;20030;-74
2023/01/15 05:56:36;;;;;;;18.13;2.50;;;;;;;6.37;100.00;99030.31;5110123;27;20022;-74
2023/01/15 05:59:04;;;;;;;20.25;3.05;;;;;;;6.28;100.00;99060.94;5119200;27;20022;-74
2023/01/15 06:01:31;;;;;;;25.75;3.22;;;;;;;6.34;100.00;99033.38;5125453;27;20018;-74
2023/01/15 06:03:58;;;;;;;30.27;3.33;;;;;;;6.36;100.00;99025.94;5111235;27;20083;-74
2023/01/15 06:06:24;;;;;;;20.00;3.20;;;;;;;6.33;100.00;99020.94;5109772;27;20076;-74
2023/01/15 06:08:50;;;;;;;23.05;3.22;;;;;;;6.25;100.00;99030.69;5119695;27;20386;-74
2023/01/15 06:11:15;;;;;;;27.95;4.00;;;;;;;6.34;100.00;99030.69;5123778;27;20015;-74
2023/01/15 06:13:40;;;;;;;18.48;2.65;;;;;;;6.30;100.00;99042.78;5114649;27;20487;-74
2023/01/15 06:16:09;;;;;;;25.45;2.42;;;;;;;6.36;100.00;99042.91;5118711;27;20493;-74
2023/01/15 06:18:35;;;;;;;23.08;3.75;;;;;;;6.23;100.00;99027.34;5119928;27;20086;-74
2023/01/15 06:21:08;;;;;;;17.08;2.83;;;;;;;6.24;100.00;99061.28;5115279;27;20019;-74
2023/01/15 06:23:36;;;;;;;18.30;2.50;;;;;;;6.21;100.00;99037.44;5098307;27;20042;-74
2023/01/15 06:26:04;;;;;;;20.25;3.72;;;;;;;6.34;100.00;99071.00;5114294;27;20109;-74
2023/01/15 06:28:30;;;;;;;20.48;3.92;;;;;;;6.38;100.00;99029.28;5122450;27;20042;-74
2023/01/15 06:30:55;;;;;;;22.35;2.72;;;;;;;6.32;100.00;99046.13;5138006;27;20455;-74
2023/01/15 06:33:21;;;;;;;21.13;3.03;;;;;;;6.33;100.00;99026.31;5115756;27;20027;-74
2023/01/15 06:35:46;;;;;;;20.70;3.38;;;;;;;6.24;100.00;99012.91;5112020;27;20065;-74
2023/01/15 06:38:11;;;;;;;18.10;3.55;;;;;;;6.28;100.00;99028.69;5118076;27;20436;-74
2023/01/15 06:40:37;;;;;;;21.98;2.47;;;;;;;6.27;100.00;99033.22;5133096;27;20444;-74
2023/01/15 06:47:19;;;;;;;22.33;3.45;;;;;;;6.27;100.00;99037.78;5127194;27;20019;-74
2023/01/15 06:48:50;;;;;;;21.50;3.05;;;;;;;6.28;100.00;99056.41;5121475;27;20113;-74
2023/01/15 06:51:18;;;;;;;14.73;4.05;;;;;;;6.36;100.00;99037.53;5114752;27;20106;-74
2023/01/15 06:53:44;;;;;;;19.75;2.88;;;;;;;6.40;100.00;99032.66;5111233;27;20379;-74
2023/01/15 06:56:09;;;;;;;24.00;3.35;;;;;;;6.29;100.00;99046.47;5125097;27;20027;-74
2023/01/15 06:58:34;;;;;;;22.20;3.60;;;;;;;6.29;100.00;99057.22;5106647;27;20023;-74
2023/01/15 07:01:00;;;;;;;23.70;3.95;;;;;;;6.34;100.00;99028.00;5108520;27;20027;-74
2023/01/15 07:03:25;;;;;;;12.45;2.40;;;;;;;6.32;100.00;99035.38;5109935;27;20025;-74
2023/01/15 07:05:51;;;;;;;19.33;3.17;;;;;;;6.40;100.00;99038.03;5119103;27;20100;-74
2023/01/15 07:08:16;;;;;;;20.67;3.33;;;;;;;6.47;100.00;99039.00;5127681;27;20023;-74
2023/01/15 07:10:42;;;;;;;20.33;2.75;;;;;;;6.33;100.00;99043.28;5111726;27;20038;-74
2023/01/15 07:13:09;;;;;;;11.82;2.63;;;;;;;6.31;100.00;99044.44;5107687;27;20073;-74
2023/01/15 07:15:36;;;;;;;22.27;3.05;;;;;;;6.31;100.00;99044.44;5123076;27;20030;-74
2023/01/15 07:18:03;;;;;;;17.42;3.40;;;;;;;6.39;100.00;99073.97;5125505;27;20019;-74
2023/01/15 07:20:28;;;;;;;17.58;2.70;;;;;;;6.27;100.00;99048.53;5134652;27;20015;-74
2023/01/15 07:22:53;;;;;;;24.58;3.22;;;;;;;6.33;100.00;99031.69;5110211;27;20425;-74
2023/01/15 07:25:19;;;;;;;15.43;2.75;;;;;;;6.40;100.00;99043.41;5097805;27;20042;-74
2023/01/15 07:27:47;;;;;;;18.85;2.95;;;;;;;6.25;100.00;99030.69;5112502;27;20431;-74
2023/01/15 07:30:13;;;;;;;23.02;3.45;;;;;;;6.24;100.00;99050.53;5135055;27;20051;-74
2023/01/15 07:32:39;;;;;;;22.13;3.40;;;;;;;6.25;100.00;99033.38;5125218;27;20034;-74
2023/01/15 07:35:05;;;;;;;16.13;3.50;;;;;;;6.27;100.00;99027.03;5112572;27;20027;-74
2023/01/15 07:37:30;;;;;;;14.90;2.67;;;;;;;6.26;100.00;99031.56;5115444;27;20038;-76
2023/01/15 07:39:56;;;;;;;24.70;3.13;;;;;;;6.18;100.00;99032.41;5134392;27;20050;-74
2023/01/15 07:50:53;;;;;;;22.52;4.00;;;;;;;6.29;100.00;99051.84;5126730;27;20058;-74
2023/01/15 07:53:19;;;;;;;18.10;3.28;;;;;;;6.17;100.00;99044.19;5105910;27;20070;-74
2023/01/15 07:55:44;;;;;;;16.67;2.92;;;;;;;6.15;100.00;99043.53;5123663;27;20030;-73
2023/01/15 07:58:09;;;;;;;22.60;3.65;;;;;;;6.23;100.00;99027.34;5105730;27;20096;-73
2023/01/15 08:00:35;;;;;;;19.92;4.22;;;;;;;6.29;100.00;99051.84;5124924;27;20478;-74
2023/01/15 08:03:02;;;;;;;21.95;3.05;;;;;;;6.13;100.00;99050.94;5107074;27;20468;-74
2023/01/15 08:05:27;;;;;;;19.90;5.10;;;;;;;6.22;100.00;99046.34;5103373;27;20058;-74
2023/01/15 08:07:53;;;;;;;26.52;4.32;;;;;;;6.17;100.00;99033.44;5113774;27;20076;-74
2023/01/15 08:10:18;;;;;;;15.68;2.83;;;;;;;6.15;100.00;99051.59;5106771;27;20056;-73
2023/01/15 08:15:33;;;;;;;17.45;2.90;;;;;;;6.24;100.00;99044.31;5125668;27;20115;-73
2023/01/15 08:17:59;;;;;;;18.33;3.35;;;;;;;6.28;100.00;99042.13;5102864;27;20023;-73
2023/01/15 08:20:25;;;;;;;15.70;3.00;;;;;;;6.22;100.00;99041.81;5127148;27;20027;-73
2023/01/15 08:22:51;;;;;;;24.25;4.00;;;;;;;6.29;100.00;99046.47;5106456;27;20027;-76
2023/01/15 08:25:22;;;;;;;23.95;3.22;;;;;;;6.13;100.00;99064.38;5123716;27;20088;-74
2023/01/15 08:27:47;;;;;;;18.17;3.00;;;;;;;6.20;100.00;99053.75;5109729;27;20015;-74
2023/01/15 08:30:17;;;;;;;22.83;3.10;;;;;;;6.30;100.00;99053.53;5099280;27;20295;-75
2023/01/15 08:32:42;;;;;;;17.40;3.42;;;;;;;6.19;100.00;99058.28;5108215;27;20109;-75
2023/01/15 08:35:08;;;;;;;19.20;3.38;;;;;;;6.24;100.00;99063.97;5136397;27;20148;-75
2023/01/15 08:37:34;;;;;;;23.65;4.07;;;;;;;6.12;100.00;99057.28;5110071;27;20090;-75
2023/01/15 08:39:59;;;;;;;23.33;3.33;;;;;;;6.11;100.00;99063.69;5104752;27;20106;-76
2023/01/15 08:42:25;;;;;;;16.00;3.40;;;;;;;6.13;100.00;99059.00;5105884;27;20111;-75
2023/01/15 08:44:53;;;;;;;18.92;4.05;;;;;;;6.04;100.00;99060.00;5131896;27;20425;-75
2023/01/15 08:47:18;;;;;;;16.50;2.88;;;;;;;6.12;100.00;99073.41;5138806;27;20083;-73
2023/01/15 08:49:45;;;;;;;20.13;3.08;;;;;;;6.20;100.00;99045.69;5106955;27;20018;-75
2023/01/15 08:52:11;;;;;;;17.02;3.08;;;;;;;6.07;100.00;99035.50;5104975;27;20035;-75
2023/01/15 08:54:36;;;;;;;21.00;3.65;;;;;;;5.98;100.00;99032.00;5107399;27;20092;-73
2023/01/15 08:57:02;;;;;;;29.05;3.50;;;;;;;6.05;100.00;99034.81;5106242;28;20027;-73
2023/01/15 08:59:27;;;;;;;21.60;2.85;;;;;;;6.08;100.00;99033.66;5110256;27;20076;-75
2023/01/15 09:01:52;;;;;;;24.65;4.05;;;;;;;5.96;100.00;99035.88;5109782;28;20015;-73
2023/01/15 09:04:20;;;;;;;26.05;3.67;;;;;;;6.00;100.00;99037.22;5105971;28;20027;-73
2023/01/15 09:06:47;;;;;;;24.42;3.40;;;;;;;5.94;100.00;99033.38;5135412;27;20101;-72
2023/01/15 09:09:13;;;;;;;28.08;3.78;;;;;;;5.97;100.00;99022.28;5119751;27;20044;-72
2023/01/15 09:11:39;;;;;;;34.85;3.90;;;;;;;5.97;100.00;99016.06;5118009;27;20032;-73
2023/01/15 09:14:09;;;;;;;22.60;3.28;;;;;;;5.88;100.00;99049.31;5120185;27;20015;-74
2023/01/15 09:16:36;;;;;;;23.10;2.83;;;;;;;6.01;100.00;99022.78;5104954;27;20350;-74
2023/01/15 09:19:02;;;;;;;23.02;3.25;;;;;;;6.01;100.00;99025.47;5128229;27;20019;-73
2023/01/15 09:21:27;;;;;;;17.42;3.22;;;;;;;5.92;100.00;99024.63;5120791;27;20020;-73
2023/01/15 09:23:53;;;;;;;21.17;3.63;;;;;;;5.89;100.00;99013.38;5100012;27;20019;-74
2023/01/15 09:26:28;;;;;;;19.45;3.10;;;;;;;5.90;100.00;99020.44;5110606;27;20484;-73
2023/01/15 09:28:54;;;;;;;16.67;2.65;;;;;;;5.98;100.00;99047.28;5106909;27;20030;-73
2023/01/15 09:31:20;;;;;;;18.42;3.67;;;;;;;6.03;100.00;99033.34;5111055;27;20016;-73
2023/01/15 09:33:46;;;;;;;15.35;3.40;;;;;;;6.05;100.00;99028.63;5123691;27;20015;-73
2023/01/15 09:36:16;;;;;;;19.02;2.70;;;;;;;6.09;100.00;99030.78;5114482;28;20015;-73
2023/01/15 09:38:42;;;;;;;15.50;2.60;;;;;;;6.16;100.00;99037.13;5104800;27;20031;-76
2023/01/15 09:44:14;;;;;;;16.17;2.90;;;;;;;6.17;100.00;99033.44;5126295;27;20148;-73
2023/01/15 09:46:48;;;;;;;19.65;3.00;;;;;;;6.32;100.00;99036.19;5115406;27;20030;-73
2023/01/15 09:49:39;;;;;;;12.35;2.25;;;;;;;6.41;99.02;99061.22;5101369;28;20027;-73
2023/01/15 09:52:23;;;;;;;16.55;2.42;;;;;;;6.33;96.98;99075.53;5130611;27;20073;-73
2023/01/15 09:55:00;;;;;;;12.00;2.13;;;;;;;6.37;97.75;99047.28;5123361;27;20027;-74
2023/01/15 09:57:27;;;;;;;13.63;2.80;;;;;;;6.42;95.94;99057.50;5106208;27;20087;-74
2023/01/15 10:00:02;;;;;;;17.40;2.78;;;;;;;6.50;94.71;99071.72;5136358;27;20035;-74
2023/01/15 10:02:48;;;;;;;11.93;2.30;;;;;;;6.38;93.89;99046.25;5143845;27;20042;-73
2023/01/15 10:05:23;;;;;;;11.05;2.33;;;;;;;6.55;93.41;99051.56;5121462;27;20093;-73
2023/01/15 10:08:13;;;;;;;16.83;2.88;;;;;;;6.51;92.77;99045.69;5121035;27;20050;-73
2023/01/15 10:11:20;;;;;;;11.63;2.05;;;;;;;6.44;92.55;99058.16;5130499;27;20035;-73
2023/01/15 10:14:07;;;;;;;15.02;2.45;;;;;;;6.43;93.66;99043.03;5132662;27;20121;-73
2023/01/15 10:16:33;;;;;;;14.07;2.72;;;;;;;6.41;92.36;99039.72;5108577;27;20024;-73
2023/01/15 10:19:03;;;;;;;10.77;2.13;;;;;;;6.53;91.72;99038.28;5130167;27;20175;-74
2023/01/15 10:21:41;;;;;;;11.37;2.67;;;;;;;6.39;92.30;99159.97;5139213;27;20079;-73
2023/01/15 10:24:16;;;;;;;18.48;2.60;;;;;;;6.38;92.07;99096.47;5110841;27;20034;-73
2023/01/15 10:26:56;;;;;;;15.25;2.03;;;;;;;6.53;91.78;99065.19;5116496;27;20031;-73
2023/01/15 10:29:53;;;;;;;11.27;2.78;;;;;;;6.54;90.83;99056.09;5128086;27;20087;-73
2023/01/15 10:32:25;;;;;;;19.48;3.10;;;;;;;6.45;89.89;99030.25;5112235;27;20027;-73
2023/01/15 10:34:51;;;;;;;13.30;3.40;;;;;;;6.65;89.84;99053.00;5117445;27;20026;-73
2023/01/15 10:37:25;;;;;;;18.52;3.15;;;;;;;6.67;88.87;99040.22;5117267;27;20027;-73
2023/01/15 10:40:18;;;;;;;14.93;3.03;;;;;;;6.62;88.73;99074.03;5107469;27;20038;-72
2023/01/15 10:43:10;;;;;;;20.42;2.67;;;;;;;6.77;89.00;99029.22;5106204;27;20087;-74
2023/01/15 10:45:58;;;;;;;11.07;3.40;;;;;;;6.83;87.30;99006.13;5097455;27;20091;-73
2023/01/15 10:48:36;;;;;;;20.05;3.60;;;;;;;6.77;88.25;99040.78;5112099;27;20030;-73
2023/01/15 10:51:12;;;;;;;14.80;3.28;;;;;;;6.61;87.74;99030.16;5122520;27;20027;-73
2023/01/15 10:53:47;;;;;;;18.83;3.38;;;;;;;6.62;87.40;99053.34;5115397;27;20029;-73
2023/01/15 10:56:35;;;;;;;10.98;2.25;;;;;;;6.59;88.51;99042.97;5131181;27;20020;-74
2023/01/15 10:59:26;;;;;;;17.15;2.67;;;;;;;6.55;87.68;99020.13;5108084;27;20581;-75
2023/01/15 11:01:54;;;;;;;14.82;2.33;;;;;;;6.59;88.25;99031.38;5105904;27;20023;-73
2023/01/15 11:04:20;;;;;;;13.57;3.05;;;;;;;6.49;88.77;99067.38;5109516;27;20030;-74
2023/01/15 11:06:45;;;;;;;14.30;3.05;;;;;;;6.48;88.80;99024.53;5103819;27;20034;-73
2023/01/15 11:09:33;;;;;;;20.58;3.47;;;;;;;6.62;88.74;99026.47;5101089;27;20664;-73
2023/01/15 11:20:43;;;;;;;12.98;2.40;;;;;;;6.73;87.96;99018.00;5127542;27;20015;-75
2023/01/15 11:23:18;;;;;;;15.55;2.42;;;;;;;6.64;88.88;99035.19;5119145;27;20031;-75
2023/01/15 11:25:56;;;;;;;13.90;2.85;;;;;;;6.54;88.83;99007.69;5103361;27;20076;-74
2023/01/15 11:28:34;;;;;;;10.77;2.50;;;;;;;6.59;89.38;98978.44;5111901;27;21316;-75
2023/01/15 11:30:59;;;;;;;10.05;2.20;;;;;;;6.54;88.69;98964.69;5102643;27;20055;-73
2023/01/15 11:33:26;;;;;;;20.02;2.78;;;;;;;6.64;88.16;98976.03;5109800;27;20107;-73
2023/01/15 11:35:58;;;;;;;15.77;2.50;;;;;;;6.51;89.02;99019.63;5108330;27;20114;-76
2023/01/15 11:38:25;;;;;;;16.52;3.15;;;;;;;6.44;89.85;99042.03;5133588;27;20038;-75
2023/01/15 11:40:52;;;;;;;17.70;1.80;;;;;;;6.47;92.17;99009.44;5126896;27;20031;-75
2023/01/15 11:51:56;;;;;;;10.68;2.53;;;;;;;5.84;96.04;99031.84;5137711;27;20034;-75
2023/01/15 11:54:24;;;;;;;8.00;2.03;;;;;;;5.37;100.00;99138.13;5123912;27;20098;-75
2023/01/15 11:56:57;;;;;;;11.20;1.90;;;;;;;4.67;100.00;99048.41;5129508;27;20029;-74
2023/01/15 11:59:23;;;;;;;11.27;2.30;;;;;;;4.54;100.00;99049.72;5097851;27;20015;-75
2023/01/15 12:02:16;;;;;;;10.10;1.98;;;;;;;4.41;100.00;99076.16;5101827;27;20019;-75
2023/01/15 12:04:55;;;;;;;6.20;1.50;;;;;;;4.18;100.00;99048.28;5107825;27;20083;-74
2023/01/15 12:07:23;;;;;;;12.82;1.65;;;;;;;3.58;100.00;99056.34;5123415;27;20026;-74
2023/01/15 12:11:02;;;;;;;2.15;0.50;;;;;;;2.96;100.00;98977.09;5113669;27;20028;-74
2023/01/15 12:13:33;;;;;;;7.18;1.35;;;;;;;3.19;100.00;98971.19;5111291;27;20023;-75
2023/01/15 12:16:13;;;;;;;4.43;1.00;;;;;;;3.60;100.00;98984.81;5097776;27;20020;-75
2023/01/15 12:18:51;;;;;;;2.45;0.90;;;;;;;3.91;100.00;98990.44;5121194;27;20018;-72
2023/01/15 12:21:28;;;;;;;2.05;0.85;;;;;;;3.92;100.00;98989.47;5112325;27;20022;-75
2023/01/15 12:23:59;;;;;;;2.20;0.80;;;;;;;4.01;100.00;99016.09;5128727;27;20154;-75
2023/01/15 12:26:31;;;;;;;4.82;1.38;;;;;;;4.04;100.00;98996.16;5099615;28;20531;-73